Latest Weather Observations for Ocean Reef

IDW60801

Issued at 5:43 pm WST Thursday 30 June 2022 (issued every 10 minutes, with the page automatically refreshed every 10 minutes)

About weather observations | Map of weather stations | Latest weather observations for WA | Other Formats
Station Details ID: 009214 Name: OCEAN REEF Lat: -31.76 Lon: 115.73 Height: 10.0 m
Data from the previous 72 hours. | See also: Recent months at Ocean Reef
Date/Time
WST
Temp
°C
App
Temp
°C
Dew
Point
°C
Rel
Hum
%
Delta-T
°C
Wind Press
QNH
hPa
Press
MSL
hPa
Rain since
9am
mm
Dir  Spd
km/h
Gust
km/h
Spd
kts
Gust
kts
30/05:30pm - - - - - E 9 11 5 6 - - -
30/05:00pm - - - - - E 13 17 7 9 - - -
30/04:30pm - - - - - E 15 22 8 12 - - -
30/04:00pm - - - - - ENE 15 24 8 13 - - -
30/03:30pm - - - - - E 15 22 8 12 - - -
30/03:00pm - - - - - ENE 13 20 7 11 - - -
30/02:30pm - - - - - NE 15 26 8 14 - - -
30/02:00pm - - - - - ENE 13 22 7 12 - - -
30/01:30pm - - - - - ENE 15 26 8 14 - - -
30/01:00pm - - - - - ENE 13 24 7 13 - - -
30/12:30pm - - - - - ENE 15 22 8 12 - - -
30/12:00pm - - - - - NE 19 30 10 16 - - -
30/11:30am - - - - - ENE 17 30 9 16 - - -
30/11:00am - - - - - NE 22 35 12 19 - - -
30/10:30am - - - - - ENE 20 32 11 17 - - -
30/10:00am - - - - - ENE 19 33 10 18 - - -
30/09:30am - - - - - ENE 17 28 9 15 - - -
30/09:00am - - - - - ENE 13 19 7 10 - - -
30/08:30am - - - - - E 7 9 4 5 - - -
30/08:00am - - - - - E 7 7 4 4 - - -
30/07:30am - - - - - ESE 11 13 6 7 - - -
30/07:00am - - - - - E 9 9 5 5 - - -
30/06:30am - - - - - ESE 11 13 6 7 - - -
30/06:00am - - - - - ESE 11 13 6 7 - - -
30/05:30am - - - - - SE 9 11 5 6 - - -
30/05:00am - - - - - SSE 7 9 4 5 - - -
30/04:30am - - - - - SSE 7 9 4 5 - - -
30/04:00am - - - - - SSE 7 9 4 5 - - -
30/03:30am - - - - - CALM 0 0 0 0 - - -
30/03:00am - - - - - CALM 0 0 0 0 - - -
30/02:30am - - - - - ENE 4 11 2 6 - - -
30/02:00am - - - - - ENE 9 15 5 8 - - -
30/01:30am - - - - - ENE 15 24 8 13 - - -
30/01:00am - - - - - E 13 22 7 12 - - -
30/12:30am - - - - - E 11 17 6 9 - - -
30/12:00am - - - - - E 9 15 5 8 - - -
 
Date/Time
WST
Temp
°C
App
Temp
°C
Dew
Point
°C
Rel
Hum
%
Delta-T
°C
Wind Press
QNH
hPa
Press
MSL
hPa
Rain since
9am
mm
Dir  Spd
km/h
Gust
km/h
Spd
kts
Gust
kts
29/11:30pm - - - - - ESE 11 17 6 9 - - -
29/11:00pm - - - - - SE 9 13 5 7 - - -
29/10:30pm - - - - - ESE 2 11 1 6 - - -
29/10:00pm - - - - - ESE 4 9 2 5 - - -
29/09:30pm - - - - - E 9 11 5 6 - - -
29/09:00pm - - - - - ESE 11 17 6 9 - - -
29/08:30pm - - - - - E 13 17 7 9 - - -
29/08:00pm - - - - - E 13 17 7 9 - - -
29/07:30pm - - - - - ESE 13 20 7 11 - - -
29/07:00pm - - - - - ESE 11 17 6 9 - - -
29/06:30pm - - - - - ESE 17 24 9 13 - - -
29/06:00pm - - - - - ESE 11 17 6 9 - - -
29/05:30pm - - - - - ESE 15 26 8 14 - - -
29/05:00pm - - - - - ESE 17 26 9 14 - - -
29/04:30pm - - - - - ESE 17 26 9 14 - - -
29/04:00pm - - - - - E 17 28 9 15 - - -
29/03:30pm - - - - - E 19 28 10 15 - - -
29/03:00pm - - - - - E 17 28 9 15 - - -
29/02:30pm - - - - - E 15 26 8 14 - - -
29/02:00pm - - - - - E 17 26 9 14 - - -
29/01:30pm - - - - - ENE 15 22 8 12 - - -
29/01:00pm - - - - - ENE 19 28 10 15 - - -
29/12:30pm - - - - - E 17 28 9 15 - - -
29/12:00pm - - - - - ENE 19 28 10 15 - - -
29/11:30am - - - - - ENE 19 28 10 15 - - -
29/11:00am - - - - - E 24 35 13 19 - - -
29/10:30am - - - - - E 30 43 16 23 - - -
29/10:14am - - - - - ENE 28 46 15 25 - - -
29/10:00am - - - - - E 20 30 11 16 - - -
29/09:30am - - - - - E 22 33 12 18 - - -
29/09:00am - - - - - E 24 35 13 19 - - -
29/08:30am - - - - - E 22 32 12 17 - - -
29/08:00am - - - - - E 19 32 10 17 - - -
29/07:30am - - - - - E 20 30 11 16 - - -
29/07:00am - - - - - E 19 26 10 14 - - -
29/06:30am - - - - - ESE 15 26 8 14 - - -
29/06:00am - - - - - ESE 13 19 7 10 - - -
29/05:30am - - - - - SE 13 19 7 10 - - -
29/05:00am - - - - - SE 15 19 8 10 - - -
29/04:30am - - - - - SE 11 11 6 6 - - -
29/04:00am - - - - - SSE 11 11 6 6 - - -
29/03:30am - - - - - SE 13 15 7 8 - - -
29/03:00am - - - - - SE 13 15 7 8 - - -
29/02:30am - - - - - SE 9 11 5 6 - - -
29/02:00am - - - - - SE 13 15 7 8 - - -
29/01:30am - - - - - SSE 11 13 6 7 - - -
29/01:00am - - - - - SSE 11 13 6 7 - - -
29/12:30am - - - - - SE 13 15 7 8 - - -
29/12:00am - - - - - SE 15 19 8 10 - - -
 
Date/Time
WST
Temp
°C
App
Temp
°C
Dew
Point
°C
Rel
Hum
%
Delta-T
°C
Wind Press
QNH
hPa
Press
MSL
hPa
Rain since
9am
mm
Dir  Spd
km/h
Gust
km/h
Spd
kts
Gust
kts
28/11:30pm - - - - - SE 11 15 6 8 - - -
28/11:00pm - - - - - SE 13 15 7 8 - - -
28/10:30pm - - - - - SE 13 17 7 9 - - -
28/10:00pm - - - - - SE 13 17 7 9 - - -
28/09:30pm - - - - - SE 13 15 7 8 - - -
28/09:00pm - - - - - SE 11 15 6 8 - - -
28/08:30pm - - - - - SE 13 15 7 8 - - -
28/08:00pm - - - - - SE 11 15 6 8 - - -
28/07:30pm - - - - - SE 11 15 6 8 - - -
28/07:00pm - - - - - SE 11 15 6 8 - - -
28/06:30pm - - - - - SE 11 15 6 8 - - -
28/06:00pm - - - - - SE 11 15 6 8 - - -
28/05:30pm - - - - - ESE 11 13 6 7 - - -
28/05:00pm - - - - - ESE 13 19 7 10 - - -
28/04:30pm - - - - - ESE 15 24 8 13 - - -
28/04:00pm - - - - - SE 13 28 7 15 - - -
28/03:30pm - - - - - S 17 22 9 12 - - -
28/03:00pm - - - - - SE 9 17 5 9 - - -
28/02:30pm - - - - - SSE 11 15 6 8 - - -
28/02:00pm - - - - - SSE 15 19 8 10 - - -
28/01:30pm - - - - - SE 11 17 6 9 - - -
28/01:00pm - - - - - SE 17 28 9 15 - - -
28/12:30pm - - - - - SE 17 26 9 14 - - -
28/12:00pm - - - - - SE 20 32 11 17 - - -
28/11:30am - - - - - ESE 19 28 10 15 - - -
28/11:00am - - - - - ESE 17 28 9 15 - - -
28/10:30am - - - - - ESE 17 26 9 14 - - -
28/10:00am - - - - - SE 15 24 8 13 - - -
28/09:30am - - - - - SE 9 11 5 6 - - -
28/09:00am - - - - - SE 13 17 7 9 - - -
28/08:30am - - - - - ESE 11 13 6 7 - - -
28/08:00am - - - - - E 11 15 6 8 - - -
28/07:30am - - - - - E 13 15 7 8 - - -
28/07:00am - - - - - E 13 15 7 8 - - -
28/06:30am - - - - - E 13 17 7 9 - - -
28/06:00am - - - - - E 13 15 7 8 - - -
28/05:30am - - - - - ESE 13 17 7 9 - - -
28/05:00am - - - - - ESE 11 13 6 7 - - -
28/04:30am - - - - - E 11 13 6 7 - - -
28/04:00am - - - - - ESE 13 15 7 8 - - -
28/03:30am - - - - - ESE 13 17 7 9 - - -
28/03:00am - - - - - ESE 13 15 7 8 - - -
28/02:30am - - - - - SE 13 15 7 8 - - -
28/02:00am - - - - - ESE 13 15 7 8 - - -
28/01:30am - - - - - ESE 11 13 6 7 - - -
28/01:00am - - - - - ESE 11 13 6 7 - - -
28/12:30am - - - - - SE 13 15 7 8 - - -
28/12:00am - - - - - SE 13 15 7 8 - - -
 
Date/Time
WST
Temp
°C
App
Temp
°C
Dew
Point
°C
Rel
Hum
%
Delta-T
°C
Wind Press
QNH
hPa
Press
MSL
hPa
Rain since
9am
mm
Dir  Spd
km/h
Gust
km/h
Spd
kts
Gust
kts
27/11:30pm - - - - - SE 13 17 7 9 - - -
27/11:00pm - - - - - SE 15 17 8 9 - - -
27/10:30pm - - - - - SE 15 19 8 10 - - -
27/10:00pm - - - - - SE 17 26 9 14 - - -
27/09:30pm - - - - - SSE 19 30 10 16 - - -
27/09:00pm - - - - - SE 19 30 10 16 - - -
27/08:30pm - - - - - SSE 17 26 9 14 - - -
27/08:00pm - - - - - SSE 20 33 11 18 - - -
27/07:30pm - - - - - SSE 22 35 12 19 - - -
27/07:00pm - - - - - SSE 26 35 14 19 - - -
27/06:30pm - - - - - SSE 24 33 13 18 - - -
27/06:00pm - - - - - SSE 30 39 16 21 - - -

Other formats

Comma delimited format used in spreadsheet applications
http://www.bom.gov.au/fwo/IDW60801/IDW60801.94607.axf

JavaScript Object Notation format (JSON) in row-major order
http://www.bom.gov.au/fwo/IDW60801/IDW60801.94607.json

Data quality

Most of these data are generated automatically and are frequently updated. Quality checks on data are not normally performed. It is possible for incorrect values to appear. Refer to information at About Latest Weather Observations and please check the disclaimer before using these data.